createdAt,value
2023-03-15T00:02:29.066Z,0.30
2023-03-15T00:06:35.167Z,0.60
2023-03-15T00:10:41.703Z,1.80
2023-03-15T00:14:44.994Z,1.13
2023-03-15T00:18:48.177Z,0.70
2023-03-15T00:22:52.734Z,0.50
2023-03-15T00:26:55.601Z,1.00
2023-03-15T00:31:07.293Z,1.08
2023-03-15T00:35:13.001Z,0.82
2023-03-15T00:39:17.830Z,0.28
2023-03-15T00:43:20.692Z,1.02
2023-03-15T00:47:24.667Z,0.60
2023-03-15T00:51:29.038Z,0.65
2023-03-15T00:55:33.623Z,0.65
2023-03-15T00:59:36.529Z,0.60
2023-03-15T01:03:40.129Z,0.75
2023-03-15T01:07:45.700Z,0.40
2023-03-15T01:11:50.487Z,0.50
2023-03-15T01:15:53.549Z,0.45
2023-03-15T01:19:56.929Z,0.60
2023-03-15T01:24:00.125Z,0.52
2023-03-15T01:28:04.713Z,0.50
2023-03-15T01:32:08.641Z,0.93
2023-03-15T01:36:13.298Z,1.17
2023-03-15T01:40:16.244Z,0.55
2023-03-15T01:44:21.587Z,0.32
2023-03-15T01:48:27.968Z,0.63
2023-03-15T01:52:35.514Z,0.63
2023-03-15T01:56:42.934Z,0.70
2023-03-15T02:00:47.705Z,0.50
2023-03-15T02:04:54.545Z,0.50
2023-03-15T02:09:03.089Z,0.60
2023-03-15T02:13:08.301Z,0.70
2023-03-15T02:17:13.220Z,1.15
2023-03-15T02:21:27.647Z,0.68
2023-03-15T02:25:39.029Z,0.80
2023-03-15T02:29:43.697Z,0.95
2023-03-15T02:33:48.584Z,0.88
2023-03-15T02:37:52.588Z,0.52
2023-03-15T02:41:58.768Z,0.65
2023-03-15T02:46:05.466Z,0.88
2023-03-15T02:50:09.369Z,1.00
2023-03-15T02:54:12.573Z,1.33
2023-03-15T02:58:15.574Z,0.40
2023-03-15T03:02:21.140Z,0.70
2023-03-15T03:06:24.404Z,0.70
2023-03-15T03:10:27.752Z,0.68
2023-03-15T03:14:31.286Z,0.85
2023-03-15T03:18:36.343Z,0.73
2023-03-15T03:22:39.895Z,0.45
2023-03-15T03:26:46.474Z,0.55
2023-03-15T03:30:49.437Z,0.50
2023-03-15T03:34:54.277Z,0.52
2023-03-15T03:38:57.304Z,0.60
2023-03-15T03:43:00.609Z,1.10
2023-03-15T03:47:03.520Z,0.77
2023-03-15T03:51:08.416Z,1.15
2023-03-15T03:55:13.736Z,0.40
2023-03-15T03:59:17.244Z,1.13
2023-03-15T04:03:20.922Z,0.60
2023-03-15T04:07:25.686Z,0.93
2023-03-15T04:11:28.600Z,0.85
2023-03-15T04:15:32.168Z,0.65
2023-03-15T04:19:35.033Z,0.68
2023-03-15T04:23:40.213Z,0.60
2023-03-15T04:27:43.250Z,1.30
2023-03-15T04:31:47.362Z,0.60
2023-03-15T04:35:52.729Z,0.50
2023-03-15T04:40:35.507Z,0.70
2023-03-15T04:44:38.371Z,0.68
2023-03-15T04:48:42.201Z,0.70
2023-03-15T04:52:45.089Z,0.90
2023-03-15T04:56:49.736Z,0.88
2023-03-15T05:00:54.277Z,0.80
2023-03-15T05:04:57.970Z,0.80
2023-03-15T05:09:01.184Z,1.00
2023-03-15T05:13:05.784Z,0.60
2023-03-15T05:17:09.151Z,0.77
2023-03-15T05:21:13.039Z,1.20
2023-03-15T05:25:16.669Z,0.95
2023-03-15T05:29:21.764Z,1.45
2023-03-15T05:33:24.693Z,1.90
2023-03-15T05:37:28.348Z,1.67
2023-03-15T05:41:31.322Z,1.65
2023-03-15T05:45:36.385Z,0.88
2023-03-15T05:49:39.488Z,0.80
2023-03-15T05:53:44.653Z,1.42
2023-03-15T05:57:49.074Z,0.93
2023-03-15T06:01:53.828Z,0.90
2023-03-15T06:05:57.071Z,1.00
2023-03-15T06:10:00.295Z,1.60
2023-03-15T06:14:03.788Z,2.00
2023-03-15T06:18:09.019Z,1.50
2023-03-15T06:22:12.333Z,3.30
2023-03-15T06:26:16.324Z,1.55
2023-03-15T06:30:20.634Z,1.83
2023-03-15T06:34:27.985Z,1.10
2023-03-15T06:38:31.277Z,0.63
2023-03-15T06:42:34.831Z,0.68
2023-03-15T06:46:38.096Z,0.70
2023-03-15T06:50:47.295Z,0.93
2023-03-15T06:54:50.787Z,0.75
2023-03-15T06:58:54.160Z,0.75
2023-03-15T07:02:57.217Z,0.70
2023-03-15T07:07:01.802Z,0.70
2023-03-15T07:11:06.513Z,1.13
2023-03-15T07:15:10.882Z,1.20
2023-03-15T07:19:13.853Z,1.10
2023-03-15T07:23:19.643Z,1.52
2023-03-15T07:27:22.769Z,0.95
2023-03-15T07:31:26.771Z,0.98
2023-03-15T07:35:30.012Z,1.10
2023-03-15T07:39:35.082Z,1.70
2023-03-15T07:43:38.233Z,2.05
2023-03-15T07:47:44.198Z,0.82
2023-03-15T07:51:47.159Z,0.90
2023-03-15T07:55:52.090Z,1.23
2023-03-15T07:59:55.390Z,1.58
2023-03-15T08:03:58.966Z,2.33
2023-03-15T08:08:01.888Z,1.63
2023-03-15T08:12:06.950Z,1.65
2023-03-15T08:16:10.008Z,2.47
2023-03-15T08:20:34.166Z,2.53
2023-03-15T08:24:37.303Z,1.50
2023-03-15T08:28:42.968Z,1.83
2023-03-15T08:32:47.785Z,1.30
2023-03-15T08:36:51.791Z,1.73
2023-03-15T08:40:57.917Z,1.40
2023-03-15T08:45:02.852Z,1.58
2023-03-15T08:49:05.915Z,1.77
2023-03-15T08:53:09.894Z,1.80
2023-03-15T08:57:13.694Z,1.70
2023-03-15T09:01:18.244Z,2.67
2023-03-15T09:05:23.092Z,1.23
2023-03-15T09:09:26.243Z,2.25
2023-03-15T09:13:30.485Z,1.67
2023-03-15T09:17:34.800Z,1.65
2023-03-15T09:21:38.666Z,2.20
2023-03-15T09:25:41.833Z,1.58
2023-03-15T09:29:46.761Z,1.42
2023-03-15T09:33:51.049Z,1.48
2023-03-15T09:37:54.472Z,1.30
2023-03-15T09:41:59.040Z,1.60
2023-03-15T09:46:12.465Z,2.05
2023-03-15T09:50:22.895Z,1.65
2023-03-15T09:54:33.886Z,1.50
2023-03-15T09:58:37.428Z,1.58
2023-03-15T10:02:48.475Z,1.20
2023-03-15T10:06:56.819Z,1.27
2023-03-15T10:11:10.880Z,1.27
2023-03-15T10:15:28.411Z,1.20
2023-03-15T10:19:41.928Z,1.58
2023-03-15T10:23:51.551Z,1.05
2023-03-15T10:27:59.098Z,1.25
2023-03-15T10:32:02.153Z,1.02
2023-03-15T10:36:15.832Z,0.82
2023-03-15T10:40:40.465Z,0.93
2023-03-15T10:44:43.906Z,1.17
2023-03-15T10:48:58.598Z,1.05
2023-03-15T10:53:10.823Z,1.30
2023-03-15T10:57:19.285Z,1.57
2023-03-15T11:01:28.486Z,1.92
2023-03-15T11:05:33.519Z,1.38
2023-03-15T11:09:41.472Z,1.38
2023-03-15T11:13:59.677Z,1.45
2023-03-15T11:18:03.051Z,1.00
2023-03-15T11:22:06.037Z,1.08
2023-03-15T11:26:25.778Z,1.92
2023-03-15T11:30:36.022Z,0.95
2023-03-15T11:34:44.519Z,1.13
2023-03-15T11:38:48.797Z,1.20
2023-03-15T11:42:59.743Z,1.52
2023-03-15T11:47:12.310Z,2.03
2023-03-15T11:51:16.400Z,2.10
2023-03-15T11:55:24.036Z,1.65
2023-03-15T11:59:30.957Z,1.70
2023-03-15T12:03:39.466Z,1.45
2023-03-15T12:08:21.883Z,1.73
2023-03-15T12:12:45.916Z,1.80
2023-03-15T12:16:49.700Z,2.22
2023-03-15T12:21:07.558Z,1.48
2023-03-15T12:25:16.126Z,1.70
2023-03-15T12:29:26.130Z,1.88
2023-03-15T12:33:32.413Z,1.42
2023-03-15T12:37:44.640Z,1.30
2023-03-15T12:41:50.744Z,1.80
2023-03-15T12:45:53.776Z,1.33
2023-03-15T12:49:57.734Z,0.95
2023-03-15T12:54:04.652Z,0.75
2023-03-15T12:58:13.690Z,0.95
2023-03-15T13:02:43.464Z,0.70
2023-03-15T13:07:15.700Z,1.38
2023-03-15T13:11:26.417Z,1.50
2023-03-15T13:15:33.096Z,1.95
2023-03-15T13:19:42.404Z,0.60
2023-03-15T13:23:52.070Z,1.05
2023-03-15T13:28:00.318Z,1.25
2023-03-15T13:32:26.377Z,1.35
2023-03-15T13:36:44.935Z,1.30
2023-03-15T13:41:07.910Z,2.03
2023-03-15T13:45:24.224Z,2.03
2023-03-15T13:49:53.092Z,1.75
2023-03-15T13:54:06.552Z,1.48
2023-03-15T13:58:16.307Z,1.27
2023-03-15T14:02:36.381Z,1.75
2023-03-15T14:06:40.037Z,1.80
2023-03-15T14:10:43.640Z,1.50
2023-03-15T14:14:52.004Z,1.88
2023-03-15T14:18:57.383Z,1.45
2023-03-15T14:23:03.505Z,3.08
2023-03-15T14:27:09.616Z,2.03
2023-03-15T14:31:24.699Z,1.67
2023-03-15T14:35:32.674Z,2.20
2023-03-15T14:39:55.088Z,1.80
2023-03-15T14:43:58.733Z,4.30
2023-03-15T14:48:05.748Z,3.10
2023-03-15T14:52:14.722Z,1.55
2023-03-15T14:56:19.798Z,2.08
2023-03-15T15:00:24.974Z,1.92
2023-03-15T15:04:34.270Z,1.65
2023-03-15T15:08:41.900Z,1.48
2023-03-15T15:12:48.513Z,1.42
2023-03-15T15:16:53.736Z,1.55
2023-03-15T15:20:57.884Z,1.48
2023-03-15T15:25:02.285Z,1.60
2023-03-15T15:29:05.583Z,1.77
2023-03-15T15:33:08.602Z,1.05
2023-03-15T15:41:25.046Z,1.60
2023-03-15T15:45:27.969Z,1.42
2023-03-15T15:49:31.321Z,1.52
2023-03-15T15:53:34.566Z,1.73
2023-03-15T15:57:39.119Z,1.02
2023-03-15T16:01:59.023Z,1.50
2023-03-15T16:06:03.761Z,1.35
2023-03-15T16:10:08.784Z,1.25
2023-03-15T16:14:14.528Z,0.73
2023-03-15T16:18:17.428Z,1.10
2023-03-15T16:22:23.186Z,1.35
2023-03-15T16:26:26.403Z,1.50
2023-03-15T16:30:33.785Z,1.00
2023-03-15T16:34:36.790Z,1.38
2023-03-15T16:38:40.050Z,1.60
2023-03-15T16:42:42.966Z,1.60
2023-03-15T16:46:48.616Z,1.67
2023-03-15T16:50:51.924Z,1.77
2023-03-15T16:54:55.230Z,1.17
2023-03-15T16:58:58.519Z,1.35
2023-03-15T17:03:03.617Z,1.27
2023-03-15T17:07:06.905Z,1.90
2023-03-15T17:11:10.977Z,1.88
2023-03-15T17:15:14.301Z,1.70
2023-03-15T17:19:19.166Z,1.63
2023-03-15T17:23:22.441Z,1.20
2023-03-15T17:27:33.215Z,1.92
2023-03-15T17:31:36.972Z,1.13
2023-03-15T17:35:57.885Z,1.60
2023-03-15T17:40:01.201Z,0.95
2023-03-15T17:44:06.361Z,1.75
2023-03-15T17:48:09.721Z,1.20
2023-03-15T17:52:17.631Z,1.88
2023-03-15T17:56:22.885Z,1.77
2023-03-15T18:00:26.373Z,1.67
2023-03-15T18:04:29.675Z,1.52
2023-03-15T18:08:38.437Z,1.83
2023-03-15T18:12:43.274Z,1.88
2023-03-15T18:16:47.340Z,1.25
2023-03-15T18:20:54.633Z,1.85
2023-03-15T18:25:02.399Z,1.40
2023-03-15T18:29:08.027Z,2.33
2023-03-15T18:33:12.987Z,2.65
2023-03-15T18:37:16.658Z,1.23
2023-03-15T18:41:24.203Z,1.67
2023-03-15T18:45:29.138Z,1.63
2023-03-15T18:49:35.733Z,1.88
2023-03-15T18:53:39.081Z,1.73
2023-03-15T18:57:45.202Z,2.03
2023-03-15T19:01:48.352Z,1.65
2023-03-15T19:05:51.862Z,2.13
2023-03-15T19:09:54.976Z,1.92
2023-03-15T19:13:59.996Z,2.40
2023-03-15T19:18:03.249Z,1.90
2023-03-15T19:22:06.577Z,2.70
2023-03-15T19:26:13.963Z,2.42
2023-03-15T19:30:22.692Z,2.95
2023-03-15T19:34:25.716Z,2.22
2023-03-15T19:38:29.709Z,2.28
2023-03-15T19:42:32.707Z,2.55
2023-03-15T19:46:39.322Z,2.45
2023-03-15T19:50:43.000Z,2.90
2023-03-15T19:54:47.957Z,1.88
2023-03-15T19:58:51.413Z,2.70
2023-03-15T20:02:57.350Z,2.72
2023-03-15T20:07:00.506Z,2.42
2023-03-15T20:11:05.692Z,2.30
2023-03-15T20:15:11.080Z,3.85
2023-03-15T20:19:15.821Z,2.83
2023-03-15T20:23:19.302Z,2.58
2023-03-15T20:27:23.197Z,2.80
2023-03-15T20:31:26.623Z,3.33
2023-03-15T20:35:32.075Z,3.22
2023-03-15T20:39:35.504Z,1.98
2023-03-15T20:43:38.940Z,2.65
2023-03-15T20:47:42.572Z,2.30
2023-03-15T20:51:47.502Z,2.60
2023-03-15T20:55:50.794Z,2.28
2023-03-15T20:59:54.215Z,3.42
2023-03-15T21:03:57.587Z,3.25
2023-03-15T21:08:02.450Z,2.58
2023-03-15T21:12:06.882Z,2.50
2023-03-15T21:16:10.487Z,3.05
2023-03-15T21:20:15.647Z,3.00
2023-03-15T21:24:20.352Z,2.55
2023-03-15T21:28:23.359Z,3.38
2023-03-15T21:32:29.109Z,2.75
2023-03-15T21:36:32.125Z,2.10
2023-03-15T21:40:36.658Z,2.85
2023-03-15T21:44:40.191Z,3.00
2023-03-15T21:48:43.833Z,4.07
2023-03-15T21:52:47.087Z,3.30
2023-03-15T21:56:53.307Z,3.42
2023-03-15T22:01:00.218Z,3.45
2023-03-15T22:05:05.928Z,3.92
2023-03-15T22:09:10.913Z,3.20
2023-03-15T22:13:15.440Z,3.20
2023-03-15T22:17:18.710Z,4.15
2023-03-15T22:21:21.904Z,4.50
2023-03-15T22:25:25.526Z,3.63
2023-03-15T22:29:29.859Z,4.05
2023-03-15T22:33:33.441Z,4.15
2023-03-15T22:37:36.596Z,4.25
2023-03-15T22:41:40.090Z,3.97
2023-03-15T22:45:44.416Z,3.85
2023-03-15T22:50:06.417Z,3.42
2023-03-15T22:54:10.291Z,4.80
2023-03-15T22:58:13.733Z,4.90
2023-03-15T23:02:18.309Z,4.20
2023-03-15T23:06:22.623Z,5.45
2023-03-15T23:10:25.979Z,4.22
2023-03-15T23:14:29.271Z,4.70
2023-03-15T23:18:34.677Z,4.40
2023-03-15T23:22:38.176Z,5.85
2023-03-15T23:26:42.321Z,4.93
2023-03-15T23:30:45.970Z,6.22
2023-03-15T23:34:50.551Z,5.90
2023-03-15T23:38:53.863Z,6.38
2023-03-15T23:42:59.425Z,5.68
2023-03-15T23:47:05.955Z,5.85
2023-03-15T23:51:13.031Z,5.43
2023-03-15T23:55:16.208Z,5.03
2023-03-15T23:59:21.283Z,4.32
